• Join FlightAware (Why Join?)
  • Login
  • US Flag 
08:31AM EDT


 

Airport Tracker/Info


-or-


 

Live Flight TrackerFlight Track Log ✈ EJA566 ✈ 30-09-2013 ✈ KSTS - KSEA

Flight Track Log - Related Links

Times and Time Zones

All times are in EDT time to prevent confusion due to time zone crossing. See the EJA566 flight status page for this flight to view local times or setup timezone preferences in your user account.

Time Position Orientation Groundspeed Altitude Reporting Facility
EDT Latitude Longitude Course Direction KTS MPH feet Rate Location/Type
05:56PM 38.5231 -122.8178 North 148 170 1,300  Level Oakland Center
05:57PM 38.5853 -122.8631 330° Northwest 225 259 5,000 3,600 Climbing Oakland Center
05:58PM 38.6497 -122.9044 333° Northwest 254 292 8,700 3,240 Climbing Oakland Center
05:59PM 39.0965 -122.7841 North  Level Estimated
05:59PM 38.7317 -122.9042 360° North 293 337 11,700  Level Oakland Center
06:00PM 39.1944 -122.7792 North  Level Estimated
06:00PM 38.8161 -122.9000 North 300 345 14,400  Level Oakland Center
06:01PM 39.2924 -122.7744 North  Level Estimated
06:01PM 38.9053 -122.8978 North 319 367 16,900  Level Oakland Center
06:02PM 39.3903 -122.7695 North  Level Estimated
06:02PM 38.9953 -122.8936 North 324 373 19,100  Level Oakland Center
06:04PM 39.0892 -122.8897 North 335 386 21,400 1,980 Climbing Oakland Center
06:05PM 39.1847 -122.8850 North 341 392 23,200 1,860 Climbing Oakland Center
06:06PM 39.3053 -122.8808 North 359 413 25,300 1,620 Climbing Oakland Center
06:07PM 39.4089 -122.8772 North 370 426 26,600 1,200 Climbing Oakland Center
06:08PM 39.5078 -122.8719 North 387 445 27,800 1,140 Climbing Oakland Center
06:09PM 39.6203 -122.8672 North 401 461 29,000 1,200 Climbing Oakland Center
06:10PM 39.7342 -122.8592 North 406 467 30,300 1,200 Climbing Oakland Center
06:11PM 39.8714 -122.8206 12° North 417 480 31,500 1,080 Climbing Oakland Center
06:12PM 39.9858 -122.7875 12° North 420 483 32,600 1,020 Climbing Oakland Center
06:13PM 40.0997 -122.7819 North 408 470 33,600 1,020 Climbing Oakland Center
06:14PM 40.2133 -122.7783 North 405 466 34,700 1,020 Climbing Oakland Center
06:15PM 40.3283 -122.7747 North 409 471 35,700 1,020 Climbing Oakland Center
06:16PM 40.4442 -122.7703 North 412 474 36,800 1,020 Climbing Oakland Center
06:17PM 40.5608 -122.7675 North 416 479 37,800 1,020 Climbing Oakland Center
06:18PM 40.6764 -122.7636 North 415 478 38,900 1,020 Climbing Oakland Center
06:19PM 40.7914 -122.7603 North 413 475 39,900 960 Climbing Oakland Center
06:20PM 40.9061 -122.7561 North 413 475 40,900 1,020 Climbing Oakland Center
06:21PM 41.0181 -122.7533 North 404 465 42,000 1,020 Climbing Oakland Center
06:22PM 41.1303 -122.7508 North 403 464 43,000 600 Climbing Oakland Center
06:23PM 41.2211 -122.7475 North 408 470 43,000  Level Seattle Center
06:24PM 41.3372 -122.7442 North 416 479 43,000  Level Seattle Center
06:25PM 41.4417 -122.7394 North 412 474 43,000  Level Seattle Center
06:26PM 41.5547 -122.7358 North 407 468 43,000  Level Seattle Center
06:27PM 41.6669 -122.7303 North 405 466 43,000  Level Seattle Center
06:28PM 41.7786 -122.7272 North 401 461 43,000  Level Seattle Center
06:29PM 41.8886 -122.7231 North 397 457 43,000  Level Seattle Center
06:30PM 41.9972 -122.7208 North 387 445 43,000  Level Seattle Center
06:31PM 42.1075 -122.7172 North 390 449 43,000  Level Seattle Center
06:32PM 42.2397 -122.7117 North 391 450 43,000  Level Seattle Center
06:33PM 42.3497 -122.7075 North 393 452 43,000  Level Seattle Center
06:34PM 42.4600 -122.7031 North 395 455 43,000  Level Seattle Center
06:35PM 42.5700 -122.6994 North 395 455 43,000  Level Seattle Center
06:36PM 42.6803 -122.6961 North 395 455 43,000  Level Seattle Center
06:37PM 42.7783 -122.6947 North 396 456 43,000  Level Seattle Center
06:38PM 42.8889 -122.6892 North 398 458 43,000  Level Seattle Center
06:39PM 43.0222 -122.6836 North 400 460 43,000  Level Seattle Center
06:40PM 43.1328 -122.6806 North 398 458 43,000  Level Seattle Center
06:41PM 43.2439 -122.6772 North 399 459 43,000  Level Seattle Center
06:42PM 43.3536 -122.6736 North 397 457 43,000  Level Seattle Center
06:43PM 43.4647 -122.6717 North 400 460 43,000  Level Seattle Center
06:44PM 43.5764 -122.6669 North 402 463 43,000  Level Seattle Center
06:45PM 43.6889 -122.6636 North 404 465 43,000  Level Seattle Center
06:46PM 43.8014 -122.6594 North 404 465 43,000  Level Seattle Center
06:47PM 43.9131 -122.6556 North 403 464 43,000  Level Seattle Center
06:48PM 44.0256 -122.6519 North 405 466 43,000  Level Seattle Center
06:49PM 44.1353 -122.6489 North 399 459 43,000  Level Seattle Center
06:50PM 44.2678 -122.6439 North 398 458 43,000  Level Seattle Center
06:51PM 44.3781 -122.6389 North 398 458 43,000  Level Seattle Center
06:52PM 44.4864 -122.6361 North 395 455 43,000  Level Seattle Center
06:53PM 44.5964 -122.6319 North 395 455 43,000  Level Seattle Center
06:54PM 44.7075 -122.6286 North 399 459 43,000  Level Seattle Center
06:55PM 44.8172 -122.6244 North 398 458 43,000  Level Seattle Center
06:56PM 44.9369 -122.6219 North 395 455 43,000  Level Seattle Center
06:57PM 45.0464 -122.6167 North 395 455 43,000  Level Seattle Center
06:58PM 45.1564 -122.6131 North 398 458 43,000  Level Seattle Center
06:59PM 45.2656 -122.6092 North 397 457 43,000  Level Seattle Center
07:00PM 45.3747 -122.6044 North 395 455 43,000  Level Seattle Center
07:01PM 45.4853 -122.6014 North 399 459 43,000 -480 Level Seattle Center
07:02PM 45.5947 -122.5978 North 397 457 42,100 -1,200 Descending Seattle Center
07:03PM 45.7033 -122.5919 North 394 453 40,600 -1,680 Descending Seattle Center
07:04PM 45.8383 -122.6136 354° North 404 465 38,800 -2,100 Descending Seattle Center
07:05PM 45.9475 -122.6394 351° North 400 460 36,400 -2,460 Descending Seattle Center
07:06PM 46.0531 -122.6664 350° North 391 450 33,900 -2,400 Descending Seattle Center
07:07PM 46.1539 -122.6861 352° North 371 427 31,600 -2,160 Descending Seattle Center
07:08PM 46.2597 -122.7075 352° North 382 440 29,600 -2,040 Descending Seattle Center
07:09PM 46.3744 -122.7217 355° North 419 482 27,600 -2,040 Descending Seattle Center
07:10PM 46.4958 -122.7300 357° North 440 506 25,500 -2,340 Descending Seattle Center
07:11PM 46.6106 -122.7342 359° North 417 480 22,900 -2,640 Descending Seattle Center
07:12PM 46.7189 -122.7372 359° North 395 455 20,200 -2,820 Descending Seattle Center
07:13PM 46.8028 -122.7158 10° North 386 444 18,200 -2,880 Descending Seattle Center
07:13PM 46.8303 -122.6872 35° Northeast 402 463 17,300 -2,400 Descending Seattle Center
07:13PM 46.8364 -122.6819 31° Northeast 394 453 17,200 -2,280 Descending Seattle Center
07:14PM 46.9214 -122.5814 39° Northeast 384 442 15,000 -2,220 Descending Seattle Center
07:14PM 46.9197 -122.5819 193° South 385 443 15,000 -2,100 Level Seattle Center
07:15PM 47.0106 -122.5325 20° North 342 394 12,900 -2,220 Descending Seattle Center
07:16PM 47.0253 -122.5344 355° North 335 386 12,600 -1,980 Descending Seattle Center
07:17PM 47.1222 -122.5306 North 344 396 10,600 -1,440 Descending Seattle Center
07:17PM 47.1950 -122.5278 North 318 366 10,000 -600 Descending Seattle Center
07:18PM 47.2064 -122.5303 352° North 298 343 10,000 -300 Level Seattle Center
07:18PM 47.2764 -122.5300 360° North 295 339 9,700 -600 Descending Seattle Center
07:19PM 47.2889 -122.5311 357° North 287 330 9,400 -1,620 Descending Seattle Center
07:20PM 47.3667 -122.5314 360° North 299 344 8,000 -1,560 Descending Seattle Center
07:20PM 47.4394 -122.5275 North 287 330 6,500 -1,680 Descending Seattle Center
07:21PM 47.4456 -122.5275 360° North 283 326 6,300 -540 Descending Seattle Center
07:22PM 47.5156 -122.5081 11° North 276 318 6,000 -300 Descending Seattle Center
07:22PM 47.5208 -122.5092 352° North 273 314 6,000 -840 Level Seattle Center
07:23PM 47.5939 -122.4906 10° North 281 323 5,200 -840 Descending Seattle Center
07:23PM 47.6003 -122.4886 12° North 285 328 5,200 -240 Level Seattle Center
07:24PM 47.6544 -122.4492 26° Northeast 238 274 5,000 -240 Descending Seattle Center
07:24PM 47.6586 -122.4467 22° Northeast 220 253 5,000 -1,140 Level Seattle Center
07:25PM 47.6750 -122.3567 75° East 223 257 3,900 -1,140 Descending Seattle Center
07:25PM 47.6761 -122.3581 320° Northwest 211 243 3,900 -660 Level Seattle Center
07:26PM 47.6506 -122.3094 128° Southeast 158 182 3,200 -420 Descending Seattle Center
07:27PM 47.6111 -122.3117 182° South 144 166 3,200  Level Seattle Center
07:27PM 47.6072 -122.3100 164° South 153 176 3,200 -420 Level Seattle Center
07:28PM 47.5636 -122.3097 180° South 155 178 2,800 -480 Descending Seattle Center
07:28PM 47.5550 -122.3097 180° South 156 180 2,600 -1,020 Descending Seattle Center
07:29PM 47.5206 -122.3108 181° South 155 178 1,800 -1,020 Descending Seattle Center
07:29PM 47.5175 -122.3108 180° South 154 177 1,800 -720 Level Seattle Center
07:30PM 47.4875 -122.3114 181° South 123 142 1,100 -780 Descending Seattle Center
07:30PM 47.4800 -122.3119 183° South 111 128 900 -720 Descending Seattle Center
07:31PM 47.4567 -122.3122 180° South 113 130 400 -660 Descending Seattle Center